Time;durP1;ratioP1;P1;durP2;ratioP2;P2;SDS_P1;SDS_P2;PMS_P1;PMS_P2;Temp;Humidity;BMP_temperature;BMP_pressure;BME280_temperature;BME280_humidity;BME280_pressure;Samples;Min_cycle;Max_cycle;Signal;HPM_P1;HPM_P2
2022/09/13 00:01:13;;;;;;;;;;;19.40;65.00;;;;;;4896992;29;19923;-62
2022/09/13 00:03:38;;;;;;;;;;;19.40;65.00;;;;;;4900583;29;19920;-62
2022/09/13 00:06:08;;;;;;;;;;;19.30;66.40;;;;;;4900279;29;19923;-62
2022/09/13 00:08:34;;;;;;;;;;;19.30;65.90;;;;;;4900203;29;20010;-62
2022/09/13 00:10:59;;;;;;;;;;;19.50;64.60;;;;;;4900480;29;20432;-62
2022/09/13 00:13:25;;;;;;;;;;;19.40;65.60;;;;;;4900233;29;19918;-62
2022/09/13 00:15:51;;;;;;;;;;;19.40;65.90;;;;;;4900179;29;19958;-62
2022/09/13 00:18:17;;;;;;;;;;;19.40;66.40;;;;;;4900281;29;19919;-62
2022/09/13 00:20:43;;;;;;;;;;;19.40;66.60;;;;;;4899989;29;19955;-63
2022/09/13 00:23:09;;;;;;;;;;;19.50;66.10;;;;;;4891568;29;19957;-62
2022/09/13 00:25:35;;;;;;;;;;;19.50;65.30;;;;;;4900041;29;19911;-62
2022/09/13 00:28:01;;;;;;;;;;;19.50;66.20;;;;;;4900130;29;19915;-65
2022/09/13 00:30:26;;;;;;;;;;;19.40;66.20;;;;;;4900233;29;19958;-65
2022/09/13 00:32:52;;;;;;;;;;;19.50;65.40;;;;;;4899937;29;20256;-65
2022/09/13 00:35:17;;;;;;;;;;;19.60;64.60;;;;;;4900562;29;20435;-64
2022/09/13 00:37:43;;;;;;;;;;;19.70;64.20;;;;;;4900452;29;19943;-64
2022/09/13 00:40:09;;;;;;;;;;;19.70;64.70;;;;;;4900497;29;19919;-62
2022/09/13 00:42:34;;;;;;;;;;;19.70;64.30;;;;;;4900327;29;19915;-63
2022/09/13 00:45:02;;;;;;;;;;;19.70;64.10;;;;;;4899951;29;19959;-62
2022/09/13 00:47:27;;;;;;;;;;;19.70;64.40;;;;;;4899874;29;19957;-63
2022/09/13 00:49:57;;;;;;;;;;;19.80;63.80;;;;;;4899576;29;19996;-63
2022/09/13 00:52:24;;;;;;;;;;;19.70;64.30;;;;;;4899891;29;19919;-63
2022/09/13 00:54:52;;;;;;;;;;;19.60;64.70;;;;;;4883832;29;19916;-65
2022/09/13 00:57:19;;;;;;;;;;;19.60;64.90;;;;;;4890739;29;20390;-65
2022/09/13 00:59:50;;;;;;;;;;;19.70;64.70;;;;;;4899435;29;19919;-65
2022/09/13 01:02:16;;;;;;;;;;;19.70;65.30;;;;;;4899511;29;19919;-64
2022/09/13 01:04:42;;;;;;;;;;;19.60;65.90;;;;;;4899569;29;20514;-65
2022/09/13 01:07:11;;;;;;;;;;;19.60;65.90;;;;;;4899803;29;19958;-65
2022/09/13 01:09:40;;;;;;;;;;;19.70;64.80;;;;;;4899313;29;19990;-62
2022/09/13 01:12:24;;;;;;;;;;;19.80;63.80;;;;;;4899313;29;19955;-63
2022/09/13 01:14:50;;;;;;;;;;;19.80;63.50;;;;;;4898628;29;19916;-62
2022/09/13 01:17:16;;;;;;;;;;;19.80;63.90;;;;;;4899050;29;19912;-62
2022/09/13 01:19:41;;;;;;;;;;;19.80;64.20;;;;;;4899145;29;19923;-62
2022/09/13 01:22:07;;;;;;;;;;;19.80;64.70;;;;;;4899272;29;20047;-62
2022/09/13 01:24:42;;;;;;;;;;;19.70;65.20;;;;;;4890887;29;19919;-62
2022/09/13 01:27:18;;;;;;;;;;;19.70;65.10;;;;;;4899262;29;19919;-65
2022/09/13 01:29:59;;;;;;;;;;;19.70;66.00;;;;;;4899707;29;19918;-63
2022/09/13 01:32:43;;;;;;;;;;;19.60;66.90;;;;;;4899415;29;19912;-64
2022/09/13 01:35:12;;;;;;;;;;;19.50;66.70;;;;;;4899151;29;19915;-64
2022/09/13 01:37:45;;;;;;;;;;;19.50;66.40;;;;;;4898863;29;19938;-65
2022/09/13 01:40:16;;;;;;;;;;;19.40;67.60;;;;;;4898782;29;20384;-64
2022/09/13 01:43:01;;;;;;;;;;;19.30;68.20;;;;;;4899121;29;20288;-66
2022/09/13 01:45:49;;;;;;;;;;;19.40;68.00;;;;;;4898998;29;19973;-65
2022/09/13 01:48:35;;;;;;;;;;;19.50;66.00;;;;;;4898278;29;20002;-63
2022/09/13 01:51:04;;;;;;;;;;;19.70;64.70;;;;;;4898555;29;20436;-62
2022/09/13 01:53:33;;;;;;;;;;;19.80;64.50;;;;;;4888316;29;19911;-64
2022/09/13 01:56:25;;;;;;;;;;;19.80;64.40;;;;;;4898820;29;20010;-63
2022/09/13 01:58:54;;;;;;;;;;;19.80;64.50;;;;;;4898400;29;19911;-64
2022/09/13 02:01:27;;;;;;;;;;;19.80;65.00;;;;;;4898677;29;19934;-65
2022/09/13 02:03:54;;;;;;;;;;;19.80;64.70;;;;;;4898663;29;19920;-64
2022/09/13 02:06:25;;;;;;;;;;;19.80;64.80;;;;;;4898503;29;19911;-63
2022/09/13 02:08:53;;;;;;;;;;;19.70;65.60;;;;;;4901150;29;19920;-64
2022/09/13 02:11:21;;;;;;;;;;;19.60;66.60;;;;;;4899513;29;19923;-64
2022/09/13 02:14:06;;;;;;;;;;;19.60;66.70;;;;;;4898815;29;20341;-66
2022/09/13 02:17:00;;;;;;;;;;;19.50;67.40;;;;;;4898639;29;19947;-64
2022/09/13 02:19:38;;;;;;;;;;;19.50;67.50;;;;;;4897919;29;19983;-63
2022/09/13 02:22:06;;;;;;;;;;;19.40;67.70;;;;;;4898667;29;19978;-63
2022/09/13 02:24:33;;;;;;;;;;;19.40;67.60;;;;;;4883799;29;20505;-65
2022/09/13 02:27:00;;;;;;;;;;;19.30;69.70;;;;;;4897975;29;20331;-64
2022/09/13 02:29:27;;;;;;;;;;;19.30;68.60;;;;;;4897972;29;20249;-64
2022/09/13 02:32:13;;;;;;;;;;;19.40;68.90;;;;;;4898328;29;20002;-62
2022/09/13 02:34:40;;;;;;;;;;;19.40;68.60;;;;;;4897318;29;19963;-62
2022/09/13 02:37:07;;;;;;;;;;;19.40;69.30;;;;;;4898108;29;19916;-62
2022/09/13 02:39:35;;;;;;;;;;;19.30;69.30;;;;;;4897877;29;19919;-62
2022/09/13 02:42:03;;;;;;;;;;;19.30;69.90;;;;;;4898154;29;19959;-63
2022/09/13 02:44:37;;;;;;;;;;;19.30;69.00;;;;;;4898276;29;19915;-62
2022/09/13 02:47:13;;;;;;;;;;;19.30;68.70;;;;;;4898085;29;20050;-64
2022/09/13 02:49:42;;;;;;;;;;;19.30;69.00;;;;;;4897609;29;19918;-64
2022/09/13 02:52:18;;;;;;;;;;;19.30;68.90;;;;;;4897670;29;19918;-62
2022/09/13 02:54:54;;;;;;;;;;;19.30;68.80;;;;;;4882717;29;19967;-63
2022/09/13 02:57:24;;;;;;;;;;;19.30;69.50;;;;;;4897476;29;20459;-63
2022/09/13 02:59:49;;;;;;;;;;;19.30;69.00;;;;;;4897402;29;19963;-63
2022/09/13 03:02:16;;;;;;;;;;;19.50;67.80;;;;;;4897887;29;20336;-64
2022/09/13 03:04:42;;;;;;;;;;;19.50;67.70;;;;;;4897448;29;19916;-65
2022/09/13 03:07:11;;;;;;;;;;;19.50;66.90;;;;;;4897118;29;20390;-64
2022/09/13 03:09:41;;;;;;;;;;;19.60;66.90;;;;;;4897172;29;19927;-64
2022/09/13 03:12:07;;;;;;;;;;;19.60;67.00;;;;;;4897350;29;20335;-63
2022/09/13 03:14:35;;;;;;;;;;;19.50;67.60;;;;;;4897174;29;19958;-62
2022/09/13 03:17:19;;;;;;;;;;;19.40;67.90;;;;;;4897125;29;19979;-62
2022/09/13 03:19:45;;;;;;;;;;;19.40;68.50;;;;;;4897038;29;19922;-65
2022/09/13 03:22:13;;;;;;;;;;;19.30;69.20;;;;;;4897140;29;19915;-64
2022/09/13 03:24:49;;;;;;;;;;;19.30;69.00;;;;;;4884674;29;19916;-64
2022/09/13 03:27:26;;;;;;;;;;;19.20;69.80;;;;;;4896932;29;19915;-64
2022/09/13 03:29:56;;;;;;;;;;;19.30;69.10;;;;;;4897217;29;19975;-64
2022/09/13 03:32:39;;;;;;;;;;;19.30;69.90;;;;;;4896897;29;19920;-62
2022/09/13 03:35:23;;;;;;;;;;;19.30;70.30;;;;;;4897200;29;19967;-63
2022/09/13 03:37:49;;;;;;;;;;;19.30;70.30;;;;;;4899896;29;19939;-62
2022/09/13 03:40:18;;;;;;;;;;;19.30;69.60;;;;;;4900903;29;19923;-62
2022/09/13 03:42:51;;;;;;;;;;;19.40;69.60;;;;;;4900751;29;20291;-63
2022/09/13 03:45:20;;;;;;;;;;;19.40;70.10;;;;;;4901278;29;20324;-62
2022/09/13 03:47:46;;;;;;;;;;;19.40;70.70;;;;;;4900936;29;19911;-63
2022/09/13 03:50:14;;;;;;;;;;;19.30;71.00;;;;;;4900649;29;19915;-63
2022/09/13 03:52:40;;;;;;;;;;;19.20;71.60;;;;;;4888113;29;19923;-63
2022/09/13 03:55:06;;;;;;;;;;;19.10;72.00;;;;;;4900815;29;19916;-62
2022/09/13 03:57:32;;;;;;;;;;;19.10;71.90;;;;;;4900793;29;19967;-63
2022/09/13 03:59:57;;;;;;;;;;;19.20;71.90;;;;;;4900431;29;19915;-63
2022/09/13 04:02:24;;;;;;;;;;;19.20;72.20;;;;;;4900604;29;19947;-62
2022/09/13 04:04:49;;;;;;;;;;;19.20;72.50;;;;;;4900622;29;19920;-63
2022/09/13 04:07:17;;;;;;;;;;;19.10;73.10;;;;;;4900900;29;20390;-63
2022/09/13 04:09:42;;;;;;;;;;;19.10;73.70;;;;;;4902069;29;20380;-66
2022/09/13 04:12:12;;;;;;;;;;;19.10;74.20;;;;;;4901875;29;19912;-63
2022/09/13 04:14:38;;;;;;;;;;;19.00;74.50;;;;;;4902247;29;20030;-62
2022/09/13 04:17:04;;;;;;;;;;;19.00;75.60;;;;;;4900603;29;20381;-64
2022/09/13 04:19:30;;;;;;;;;;;18.90;75.40;;;;;;4900813;29;19915;-62
2022/09/13 04:21:56;;;;;;;;;;;19.00;75.60;;;;;;4900391;29;20280;-63
2022/09/13 04:24:23;;;;;;;;;;;19.00;75.70;;;;;;4884816;29;19931;-64
2022/09/13 04:26:50;;;;;;;;;;;19.10;76.00;;;;;;4900240;29;19919;-64
2022/09/13 04:29:17;;;;;;;;;;;19.10;76.10;;;;;;4900000;29;19912;-63
2022/09/13 04:31:43;;;;;;;;;;;19.10;76.40;;;;;;4900234;29;19919;-62
2022/09/13 04:34:09;;;;;;;;;;;19.10;76.40;;;;;;4900119;29;19998;-63
2022/09/13 04:36:34;;;;;;;;;;;19.10;76.70;;;;;;4899880;29;20006;-63
2022/09/13 04:39:00;;;;;;;;;;;19.10;76.70;;;;;;4899882;29;19922;-63
2022/09/13 04:41:25;;;;;;;;;;;19.20;76.70;;;;;;4899991;29;19920;-63
2022/09/13 04:43:51;;;;;;;;;;;19.20;76.50;;;;;;4899974;29;19911;-64
2022/09/13 04:46:17;;;;;;;;;;;19.20;76.60;;;;;;4899787;29;19971;-63
2022/09/13 04:48:42;;;;;;;;;;;19.30;76.40;;;;;;4898993;29;19968;-63
2022/09/13 04:51:08;;;;;;;;;;;19.40;75.70;;;;;;4899801;29;19998;-62
2022/09/13 04:53:34;;;;;;;;;;;19.50;75.30;;;;;;4888211;29;19955;-64
2022/09/13 04:56:03;;;;;;;;;;;19.60;75.00;;;;;;4907542;29;19963;-64
2022/09/13 04:58:30;;;;;;;;;;;19.60;74.80;;;;;;4904323;29;19915;-64
2022/09/13 05:01:06;;;;;;;;;;;19.60;75.10;;;;;;4899625;29;19971;-64
2022/09/13 05:03:32;;;;;;;;;;;19.60;75.50;;;;;;4899527;29;20254;-64
2022/09/13 05:06:05;;;;;;;;;;;19.60;75.70;;;;;;4899512;29;19918;-63
2022/09/13 05:08:31;;;;;;;;;;;19.50;76.30;;;;;;4899455;29;19916;-64
2022/09/13 05:10:57;;;;;;;;;;;19.50;76.60;;;;;;4899357;29;19934;-65
2022/09/13 05:13:23;;;;;;;;;;;19.50;76.80;;;;;;4899391;29;19926;-63
2022/09/13 05:15:48;;;;;;;;;;;19.50;76.90;;;;;;4899436;29;19934;-64
2022/09/13 05:18:14;;;;;;;;;;;19.50;77.00;;;;;;4899320;29;20359;-63
2022/09/13 05:20:40;;;;;;;;;;;19.50;78.20;;;;;;4898922;29;20344;-64
2022/09/13 05:23:06;;;;;;;;;;;19.60;77.40;;;;;;4889935;29;19974;-63
2022/09/13 05:25:31;;;;;;;;;;;19.60;77.30;;;;;;4899223;29;19911;-64
2022/09/13 05:27:57;;;;;;;;;;;19.70;77.20;;;;;;4899231;29;19911;-65
2022/09/13 05:30:22;;;;;;;;;;;19.70;77.40;;;;;;4898970;29;19919;-63
2022/09/13 05:32:48;;;;;;;;;;;19.70;77.30;;;;;;4899007;29;19911;-64
2022/09/13 05:35:14;;;;;;;;;;;19.60;78.00;;;;;;4898881;29;19916;-63
2022/09/13 05:37:39;;;;;;;;;;;19.60;78.60;;;;;;4899084;29;20356;-62
2022/09/13 05:40:05;;;;;;;;;;;19.50;79.20;;;;;;4898700;29;20272;-63
2022/09/13 05:42:31;;;;;;;;;;;19.50;79.00;;;;;;4898915;29;19966;-62
2022/09/13 05:44:56;;;;;;;;;;;19.60;78.60;;;;;;4899027;29;19955;-63
2022/09/13 05:47:22;;;;;;;;;;;19.60;78.50;;;;;;4898772;29;19915;-65
2022/09/13 05:49:47;;;;;;;;;;;19.70;78.70;;;;;;4898461;29;20007;-66
2022/09/13 05:52:13;;;;;;;;;;;19.60;79.40;;;;;;4898859;29;19911;-64
2022/09/13 05:54:39;;;;;;;;;;;19.70;79.60;;;;;;4892768;29;20328;-63
2022/09/13 05:57:04;;;;;;;;;;;19.80;78.90;;;;;;4898565;29;20249;-63
2022/09/13 05:59:30;;;;;;;;;;;19.90;76.80;;;;;;4898146;29;19919;-63
2022/09/13 06:01:56;;;;;;;;;;;20.10;76.80;;;;;;4897727;29;20010;-66
2022/09/13 06:04:22;;;;;;;;;;;20.30;76.40;;;;;;4902000;29;19954;-65
2022/09/13 06:06:47;;;;;;;;;;;20.30;77.00;;;;;;4901988;29;19927;-66
2022/09/13 06:09:13;;;;;;;;;;;20.40;77.30;;;;;;4904296;29;19927;-64
2022/09/13 06:11:39;;;;;;;;;;;20.50;76.50;;;;;;4907547;29;19912;-68
2022/09/13 06:14:04;;;;;;;;;;;20.80;74.80;;;;;;4901811;29;19916;-65
2022/09/13 06:16:30;;;;;;;;;;;21.20;74.30;;;;;;4899568;29;19915;-62
2022/09/13 06:18:57;;;;;;;;;;;21.50;73.70;;;;;;4897929;29;19918;-64
2022/09/13 06:21:22;;;;;;;;;;;21.80;72.70;;;;;;4897933;29;20402;-66
2022/09/13 06:23:49;;;;;;;;;;;22.10;72.20;;;;;;4884543;29;19911;-65
2022/09/13 06:26:16;;;;;;;;;;;22.40;72.00;;;;;;4897908;29;19912;-66
2022/09/13 06:28:42;;;;;;;;;;;22.60;71.60;;;;;;4897765;29;19923;-65
2022/09/13 06:31:11;;;;;;;;;;;22.80;71.00;;;;;;4897706;29;19912;-62
2022/09/13 06:33:38;;;;;;;;;;;22.90;70.30;;;;;;4897681;29;19919;-65
2022/09/13 06:36:06;;;;;;;;;;;22.90;68.80;;;;;;4897728;29;19911;-62
2022/09/13 06:38:32;;;;;;;;;;;22.80;69.70;;;;;;4897716;29;19927;-63
2022/09/13 06:40:58;;;;;;;;;;;22.70;70.40;;;;;;4897616;29;19923;-62
2022/09/13 06:43:24;;;;;;;;;;;22.60;70.50;;;;;;4897809;29;20009;-63
2022/09/13 06:45:49;;;;;;;;;;;22.60;71.80;;;;;;4897642;29;20436;-63
2022/09/13 06:48:15;;;;;;;;;;;22.60;71.10;;;;;;4897510;29;20399;-65
2022/09/13 06:50:40;;;;;;;;;;;22.60;71.50;;;;;;4897625;29;19915;-63
2022/09/13 06:53:06;;;;;;;;;;;22.60;72.80;;;;;;4885803;29;19937;-62
2022/09/13 06:55:31;;;;;;;;;;;22.60;73.80;;;;;;4897588;29;19923;-63
2022/09/13 06:57:57;;;;;;;;;;;22.60;73.70;;;;;;4897457;29;20368;-62
2022/09/13 07:00:23;;;;;;;;;;;22.60;73.50;;;;;;4897251;29;20394;-63
2022/09/13 07:02:51;;;;;;;;;;;22.70;72.80;;;;;;4897376;29;19968;-63
2022/09/13 07:05:19;;;;;;;;;;;22.70;71.10;;;;;;4897371;29;20406;-72
2022/09/13 07:07:45;;;;;;;;;;;22.80;70.60;;;;;;4897142;29;19916;-67
2022/09/13 07:10:11;;;;;;;;;;;22.80;70.90;;;;;;4896856;29;19924;-70
2022/09/13 07:12:39;;;;;;;;;;;22.80;71.80;;;;;;4896968;29;19963;-72
2022/09/13 07:15:04;;;;;;;;;;;22.90;72.00;;;;;;4897069;29;20037;-73
2022/09/13 07:17:30;;;;;;;;;;;22.90;70.90;;;;;;4897405;29;19920;-70
2022/09/13 07:19:55;;;;;;;;;;;22.90;73.80;;;;;;4897029;29;20279;-72
2022/09/13 07:22:25;;;;;;;;;;;22.80;74.50;;;;;;4897292;29;20261;-72
2022/09/13 07:24:51;;;;;;;;;;;22.80;74.60;;;;;;4886906;29;19915;-73
2022/09/13 07:27:17;;;;;;;;;;;22.90;73.50;;;;;;4896911;29;19918;-71
2022/09/13 07:29:42;;;;;;;;;;;23.00;74.00;;;;;;4896614;29;19919;-65
2022/09/13 07:32:08;;;;;;;;;;;23.00;73.30;;;;;;4896673;29;19920;-63
2022/09/13 07:34:34;;;;;;;;;;;23.10;72.30;;;;;;4896924;29;20427;-66
2022/09/13 07:37:00;;;;;;;;;;;23.20;72.20;;;;;;4897095;29;20002;-62
2022/09/13 07:39:25;;;;;;;;;;;23.30;73.00;;;;;;4896960;29;19994;-62
2022/09/13 07:41:52;;;;;;;;;;;23.30;72.60;;;;;;4897066;29;19963;-62
2022/09/13 07:44:18;;;;;;;;;;;23.40;72.40;;;;;;4896898;29;20352;-62
2022/09/13 07:46:44;;;;;;;;;;;23.40;71.70;;;;;;4896830;29;19911;-61
2022/09/13 07:49:12;;;;;;;;;;;23.40;70.70;;;;;;4897040;29;19911;-64
2022/09/13 07:51:38;;;;;;;;;;;23.40;69.70;;;;;;4897163;29;20352;-62
2022/09/13 07:54:09;;;;;;;;;;;23.40;70.00;;;;;;4885292;29;20388;-62
2022/09/13 07:56:36;;;;;;;;;;;23.40;70.20;;;;;;4896682;29;19948;-63
2022/09/13 07:59:03;;;;;;;;;;;23.50;69.50;;;;;;4896908;29;19922;-65
2022/09/13 08:01:32;;;;;;;;;;;23.40;69.20;;;;;;4896818;29;19924;-67
2022/09/13 08:04:02;;;;;;;;;;;23.50;69.00;;;;;;4897100;29;19912;-62
2022/09/13 08:06:29;;;;;;;;;;;23.60;69.30;;;;;;4896942;29;19967;-63
2022/09/13 08:08:54;;;;;;;;;;;23.60;68.50;;;;;;4897217;29;20326;-65
2022/09/13 08:11:30;;;;;;;;;;;23.70;67.90;;;;;;4896592;29;20070;-63
2022/09/13 08:13:56;;;;;;;;;;;23.90;68.10;;;;;;4896899;29;19911;-65
2022/09/13 08:16:22;;;;;;;;;;;24.10;66.50;;;;;;4896266;29;19926;-68
2022/09/13 08:18:49;;;;;;;;;;;24.30;65.50;;;;;;4896805;29;19915;-67
2022/09/13 08:21:15;;;;;;;;;;;24.50;63.80;;;;;;4896644;29;20339;-63
2022/09/13 08:23:40;;;;;;;;;;;24.50;63.40;;;;;;4887414;29;19911;-64
2022/09/13 08:26:07;;;;;;;;;;;24.50;63.40;;;;;;4898845;29;20010;-70
2022/09/13 08:28:33;;;;;;;;;;;24.60;62.70;;;;;;4899287;29;19915;-64
2022/09/13 08:31:06;;;;;;;;;;;24.80;62.00;;;;;;4899079;29;20010;-63
2022/09/13 08:33:32;;;;;;;;;;;24.90;61.90;;;;;;4898595;29;19926;-62
2022/09/13 08:35:58;;;;;;;;;;;25.00;61.40;;;;;;4899148;29;19912;-71
2022/09/13 08:38:23;;;;;;;;;;;24.80;60.20;;;;;;4898922;29;20344;-63
2022/09/13 08:40:51;;;;;;;;;;;25.00;60.20;;;;;;4898531;29;19934;-64
2022/09/13 08:43:16;;;;;;;;;;;25.10;60.60;;;;;;4898841;29;19911;-62
2022/09/13 08:45:47;;;;;;;;;;;25.20;60.30;;;;;;4898530;29;19927;-63
2022/09/13 08:48:15;;;;;;;;;;;25.20;59.90;;;;;;4898870;29;19963;-63
2022/09/13 08:50:43;;;;;;;;;;;25.20;59.60;;;;;;4898625;29;19919;-64
2022/09/13 08:53:28;;;;;;;;;;;25.20;59.50;;;;;;4885666;29;19916;-63
2022/09/13 08:56:02;;;;;;;;;;;25.20;59.70;;;;;;4898951;29;20364;-63
2022/09/13 08:58:27;;;;;;;;;;;25.30;60.20;;;;;;4899698;29;19916;-65
2022/09/13 09:00:58;;;;;;;;;;;25.40;59.80;;;;;;4900270;29;20018;-65
2022/09/13 09:03:24;;;;;;;;;;;25.40;58.90;;;;;;4900351;29;20360;-68
2022/09/13 09:05:51;;;;;;;;;;;25.00;60.10;;;;;;4900012;29;19918;-65
2022/09/13 09:08:20;;;;;;;;;;;24.80;60.40;;;;;;4901347;29;19950;-64
2022/09/13 09:10:49;;;;;;;;;;;24.90;60.50;;;;;;4901871;29;19959;-63
2022/09/13 09:13:26;;;;;;;;;;;25.00;60.70;;;;;;4902340;29;20009;-63
2022/09/13 09:15:53;;;;;;;;;;;25.10;60.70;;;;;;4900459;29;19918;-63
2022/09/13 09:18:24;;;;;;;;;;;25.30;60.40;;;;;;4898901;29;19915;-65
2022/09/13 09:20:52;;;;;;;;;;;25.40;59.80;;;;;;4898087;29;19920;-62
2022/09/13 09:23:23;;;;;;;;;;;25.40;58.80;;;;;;4887494;29;19912;-67
2022/09/13 09:25:55;;;;;;;;;;;25.40;59.50;;;;;;4899055;29;19918;-64
2022/09/13 09:28:21;;;;;;;;;;;25.50;60.10;;;;;;4898857;29;20257;-65
2022/09/13 09:30:50;;;;;;;;;;;25.60;59.20;;;;;;4897784;29;19920;-65
2022/09/13 09:33:23;;;;;;;;;;;25.70;58.10;;;;;;4897097;29;19919;-65
2022/09/13 09:35:57;;;;;;;;;;;25.60;58.20;;;;;;4897044;29;20002;-63
2022/09/13 09:38:31;;;;;;;;;;;25.70;58.90;;;;;;4897097;29;19929;-63
2022/09/13 09:41:04;;;;;;;;;;;25.80;58.50;;;;;;4896886;29;20292;-64
2022/09/13 09:43:32;;;;;;;;;;;25.80;58.70;;;;;;4899111;29;19915;-64
2022/09/13 09:45:59;;;;;;;;;;;25.70;58.80;;;;;;4897507;29;20359;-64
2022/09/13 09:48:34;;;;;;;;;;;25.40;59.40;;;;;;4897272;29;19919;-65
2022/09/13 09:51:01;;;;;;;;;;;25.60;59.80;;;;;;4896771;29;19912;-65
2022/09/13 09:53:34;;;;;;;;;;;25.50;59.00;;;;;;4884644;29;19911;-65
2022/09/13 09:56:00;;;;;;;;;;;25.20;59.40;;;;;;4897849;29;19919;-66
2022/09/13 09:58:41;;;;;;;;;;;25.10;60.30;;;;;;4898052;29;20260;-65
2022/09/13 10:01:33;;;;;;;;;;;25.10;60.60;;;;;;4897975;29;19983;-68
2022/09/13 10:04:07;;;;;;;;;;;25.20;59.70;;;;;;4899612;29;20010;-70
2022/09/13 10:06:33;;;;;;;;;;;25.30;60.00;;;;;;4898108;29;20336;-67
2022/09/13 10:09:06;;;;;;;;;;;25.30;58.90;;;;;;4898990;29;19919;-66
2022/09/13 10:11:50;;;;;;;;;;;25.40;59.60;;;;;;4898558;29;19911;-65
2022/09/13 10:14:26;;;;;;;;;;;25.20;59.90;;;;;;4898227;29;20297;-64
2022/09/13 10:17:12;;;;;;;;;;;25.30;60.00;;;;;;4898607;29;19954;-66
2022/09/13 10:19:38;;;;;;;;;;;25.50;60.40;;;;;;4912635;29;19916;-64
2022/09/13 10:22:07;;;;;;;;;;;25.10;59.80;;;;;;4907817;29;19941;-69
2022/09/13 10:24:33;;;;;;;;;;;24.90;59.70;;;;;;4890568;29;20340;-64
2022/09/13 10:26:58;;;;;;;;;;;24.60;61.90;;;;;;4907558;29;19919;-63
2022/09/13 10:29:26;;;;;;;;;;;24.70;62.00;;;;;;4908417;29;20018;-65
2022/09/13 10:31:52;;;;;;;;;;;24.90;61.90;;;;;;4906905;29;19912;-64
2022/09/13 10:34:22;;;;;;;;;;;25.10;63.40;;;;;;4906335;29;19912;-66
2022/09/13 10:37:11;;;;;;;;;;;25.40;61.90;;;;;;4910491;29;19950;-69
2022/09/13 10:39:44;;;;;;;;;;;25.50;60.70;;;;;;4911183;29;19935;-68
2022/09/13 10:42:10;;;;;;;;;;;25.50;60.10;;;;;;4905115;29;19926;-70
2022/09/13 10:44:39;;;;;;;;;;;25.60;61.30;;;;;;4904094;29;19911;-68
2022/09/13 10:47:09;;;;;;;;;;;25.50;60.90;;;;;;4905133;29;19919;-65
2022/09/13 10:49:41;;;;;;;;;;;25.40;59.20;;;;;;4902852;29;19935;-67
2022/09/13 10:52:29;;;;;;;;;;;25.60;59.10;;;;;;4900797;29;21675;-66
2022/09/13 10:55:14;;;;;;;;;;;25.40;59.00;;;;;;4886585;29;20003;-77
2022/09/13 10:57:40;;;;;;;;;;;25.50;60.20;;;;;;4905574;29;19911;-70
2022/09/13 11:00:10;;;;;;;;;;;25.60;58.00;;;;;;4904118;29;20348;-66
2022/09/13 11:02:35;;;;;;;;;;;25.40;58.50;;;;;;4900365;29;20386;-71
2022/09/13 11:05:13;;;;;;;;;;;25.50;61.00;;;;;;4905806;29;19939;-67
2022/09/13 11:07:39;;;;;;;;;;;25.60;60.70;;;;;;4910926;29;19948;-68
2022/09/13 11:10:07;;;;;;;;;;;25.80;59.20;;;;;;4912067;29;19927;-66
2022/09/13 11:12:44;;;;;;;;;;;25.80;57.20;;;;;;4913055;29;19919;-70
2022/09/13 11:15:17;;;;;;;;;;;25.70;56.80;;;;;;4911270;29;19947;-65
2022/09/13 11:17:43;;;;;;;;;;;25.40;57.60;;;;;;4908425;29;19920;-66
2022/09/13 11:20:23;;;;;;;;;;;25.50;55.20;;;;;;4907310;29;20008;-65
2022/09/13 11:22:58;;;;;;;;;;;25.60;56.70;;;;;;4894683;29;19911;-67
2022/09/13 11:25:42;;;;;;;;;;;25.90;55.80;;;;;;4908902;29;20296;-63
2022/09/13 11:28:10;;;;;;;;;;;25.90;54.90;;;;;;4906550;29;19918;-65
2022/09/13 11:30:54;;;;;;;;;;;25.90;55.40;;;;;;4905709;29;19915;-71
2022/09/13 11:33:20;;;;;;;;;;;26.00;56.60;;;;;;4915294;29;20269;-69
2022/09/13 11:36:01;;;;;;;;;;;26.20;56.80;;;;;;4898875;29;19922;-64
2022/09/13 11:38:45;;;;;;;;;;;26.20;57.80;;;;;;4896073;29;19918;-66
2022/09/13 11:41:30;;;;;;;;;;;26.40;57.00;;;;;;4896332;29;19926;-69
2022/09/13 11:43:59;;;;;;;;;;;26.50;57.40;;;;;;4896365;29;19970;-69
2022/09/13 11:46:33;;;;;;;;;;;26.60;57.20;;;;;;4896481;29;19998;-66
2022/09/13 11:49:02;;;;;;;;;;;26.80;57.10;;;;;;4896256;29;19927;-68
2022/09/13 11:51:33;;;;;;;;;;;26.60;57.30;;;;;;4896107;29;20002;-72
2022/09/13 11:54:08;;;;;;;;;;;26.50;58.40;;;;;;4884000;29;19967;-65
2022/09/13 11:56:39;;;;;;;;;;;26.30;59.00;;;;;;4896299;29;19915;-65
2022/09/13 11:59:18;;;;;;;;;;;26.30;59.20;;;;;;4898762;29;20287;-68
2022/09/13 12:01:45;;;;;;;;;;;26.00;59.50;;;;;;4898841;29;19967;-66
2022/09/13 12:04:26;;;;;;;;;;;25.80;60.80;;;;;;4897067;29;19916;-72
2022/09/13 12:06:55;;;;;;;;;;;26.00;61.40;;;;;;4896981;29;19922;-68
2022/09/13 12:09:23;;;;;;;;;;;26.00;60.80;;;;;;4899262;29;19943;-68
2022/09/13 12:11:55;;;;;;;;;;;26.20;59.70;;;;;;4898677;29;20276;-69
2022/09/13 12:14:22;;;;;;;;;;;25.90;59.30;;;;;;4899308;29;19915;-67
2022/09/13 12:16:51;;;;;;;;;;;25.60;61.50;;;;;;4899875;29;20292;-67
2022/09/13 12:19:16;;;;;;;;;;;25.70;62.40;;;;;;4899582;29;19915;-68
2022/09/13 12:21:43;;;;;;;;;;;25.90;60.70;;;;;;4899393;29;19926;-69
2022/09/13 12:24:15;;;;;;;;;;;25.80;62.30;;;;;;4887215;29;19912;-67
2022/09/13 12:26:47;;;;;;;;;;;25.50;63.50;;;;;;4895727;29;19934;-68
2022/09/13 12:29:12;;;;;;;;;;;25.60;63.50;;;;;;4897994;29;19924;-68
2022/09/13 12:31:38;;;;;;;;;;;25.50;62.20;;;;;;4912242;29;19911;-69
2022/09/13 12:34:06;;;;;;;;;;;25.70;63.00;;;;;;4898393;29;19934;-67
2022/09/13 12:36:31;;;;;;;;;;;25.80;63.30;;;;;;4898045;29;19911;-68
2022/09/13 12:39:16;;;;;;;;;;;25.60;64.20;;;;;;4897090;29;19916;-67
2022/09/13 12:41:46;;;;;;;;;;;25.60;62.80;;;;;;4897869;29;19951;-69
2022/09/13 12:44:18;;;;;;;;;;;25.70;64.00;;;;;;4896797;29;19916;-67
2022/09/13 12:46:44;;;;;;;;;;;25.90;64.10;;;;;;4899801;29;19922;-69
2022/09/13 12:49:09;;;;;;;;;;;25.80;63.10;;;;;;4899387;29;19994;-64
2022/09/13 12:51:58;;;;;;;;;;;25.60;64.10;;;;;;4897568;29;19916;-72
2022/09/13 12:54:27;;;;;;;;;;;25.90;63.40;;;;;;4881785;29;19995;-65
2022/09/13 12:56:59;;;;;;;;;;;26.10;62.70;;;;;;4897297;29;19971;-70
2022/09/13 12:59:34;;;;;;;;;;;26.30;62.60;;;;;;4897077;29;19923;-69
2022/09/13 13:02:00;;;;;;;;;;;26.30;59.30;;;;;;4896813;29;20398;-69
2022/09/13 13:04:29;;;;;;;;;;;26.20;60.20;;;;;;4896894;29;19987;-68
2022/09/13 13:06:58;;;;;;;;;;;26.30;60.90;;;;;;4897608;29;20349;-73
2022/09/13 13:09:38;;;;;;;;;;;26.40;60.90;;;;;;4896417;29;20026;-70
2022/09/13 13:12:03;;;;;;;;;;;26.30;59.90;;;;;;4897545;29;20006;-67
2022/09/13 13:14:38;;;;;;;;;;;26.20;59.50;;;;;;4897897;29;20050;-68
2022/09/13 13:17:22;;;;;;;;;;;26.30;60.60;;;;;;4897762;29;19935;-67
2022/09/13 13:19:48;;;;;;;;;;;26.30;61.00;;;;;;4897470;29;19916;-67
2022/09/13 13:22:33;;;;;;;;;;;26.50;61.00;;;;;;4897667;29;19923;-73
2022/09/13 13:25:18;;;;;;;;;;;26.40;60.10;;;;;;4893685;29;19943;-68
2022/09/13 13:27:44;;;;;;;;;;;26.40;60.50;;;;;;4896409;29;19915;-69
2022/09/13 13:30:48;;;;;;;;;;;26.10;61.10;;;;;;4896240;29;19912;-72
2022/09/13 13:33:18;;;;;;;;;;;26.00;62.40;;;;;;4931841;29;19921;-71
2022/09/13 13:35:44;;;;;;;;;;;26.10;62.80;;;;;;4931983;29;19942;-73
2022/09/13 13:38:22;;;;;;;;;;;26.30;62.50;;;;;;4931507;29;19965;-71
2022/09/13 13:40:49;;;;;;;;;;;26.40;61.40;;;;;;4931804;29;19923;-71
2022/09/13 13:43:24;;;;;;;;;;;26.50;62.40;;;;;;4931198;29;20253;-71
2022/09/13 13:45:56;;;;;;;;;;;26.30;64.40;;;;;;4931581;29;19946;-66
2022/09/13 13:48:54;;;;;;;;;;;26.10;63.00;;;;;;4931263;29;19914;-71
2022/09/13 13:51:24;;;;;;;;;;;26.20;63.90;;;;;;4890713;29;19914;-71
2022/09/13 13:53:52;;;;;;;;;;;26.20;63.40;;;;;;4921351;29;20324;-70
2022/09/13 13:56:19;;;;;;;;;;;26.20;63.00;;;;;;4931679;29;19915;-71
2022/09/13 13:58:48;;;;;;;;;;;25.80;63.90;;;;;;4932633;29;20001;-69
2022/09/13 14:01:16;;;;;;;;;;;25.80;64.50;;;;;;4932891;29;20435;-67
2022/09/13 14:04:00;;;;;;;;;;;25.90;64.40;;;;;;4920210;29;20321;-70
2022/09/13 14:06:44;;;;;;;;;;;26.00;64.90;;;;;;4898247;29;20038;-69
2022/09/13 14:09:19;;;;;;;;;;;26.00;65.60;;;;;;4901295;29;19951;-68
2022/09/13 14:11:50;;;;;;;;;;;25.90;65.60;;;;;;4899766;29;20292;-73
2022/09/13 14:14:35;;;;;;;;;;;26.00;66.60;;;;;;4896662;29;20026;-71
2022/09/13 14:17:19;;;;;;;;;;;26.00;66.40;;;;;;4895773;29;19955;-72
2022/09/13 14:19:46;;;;;;;;;;;26.00;66.40;;;;;;4894727;29;19922;-71
2022/09/13 14:22:19;;;;;;;;;;;25.80;68.00;;;;;;4895345;29;19979;-71
2022/09/13 14:24:49;;;;;;;;;;;25.60;68.40;;;;;;4875994;29;19947;-71
2022/09/13 14:27:19;;;;;;;;;;;25.60;69.20;;;;;;4893796;29;19963;-71
2022/09/13 14:29:45;;;;;;;;;;;25.80;68.50;;;;;;4896806;29;20014;-71
2022/09/13 14:32:14;;;;;;;;;;;25.70;69.30;;;;;;4896339;29;20002;-67